sensor_id;sensor_type;location;lat;lon;timestamp;P1;durP1;ratioP1;P2;durP2;ratioP2
45762;SDS011;37512;52.408;13.356;2023-05-10T00:00:09;5.65;;;3.90;;
45762;SDS011;37512;52.408;13.356;2023-05-10T00:04:11;8.80;;;4.35;;
45762;SDS011;37512;52.408;13.356;2023-05-10T00:08:12;9.20;;;4.13;;
45762;SDS011;37512;52.408;13.356;2023-05-10T00:12:14;9.52;;;5.13;;
45762;SDS011;37512;52.408;13.356;2023-05-10T00:16:15;6.75;;;4.30;;
45762;SDS011;37512;52.408;13.356;2023-05-10T00:20:17;7.30;;;4.70;;
45762;SDS011;37512;52.408;13.356;2023-05-10T00:24:18;6.80;;;4.55;;
45762;SDS011;37512;52.408;13.356;2023-05-10T00:28:20;6.93;;;4.85;;
45762;SDS011;37512;52.408;13.356;2023-05-10T00:32:21;7.10;;;3.80;;
45762;SDS011;37512;52.408;13.356;2023-05-10T00:36:23;7.57;;;4.57;;
45762;SDS011;37512;52.408;13.356;2023-05-10T00:40:25;8.60;;;4.93;;
45762;SDS011;37512;52.408;13.356;2023-05-10T00:44:26;6.65;;;4.55;;
45762;SDS011;37512;52.408;13.356;2023-05-10T00:48:28;6.22;;;4.70;;
45762;SDS011;37512;52.408;13.356;2023-05-10T00:52:30;9.93;;;5.05;;
45762;SDS011;37512;52.408;13.356;2023-05-10T00:56:32;7.38;;;5.00;;
45762;SDS011;37512;52.408;13.356;2023-05-10T01:00:33;6.82;;;4.85;;
45762;SDS011;37512;52.408;13.356;2023-05-10T01:04:35;6.40;;;4.53;;
45762;SDS011;37512;52.408;13.356;2023-05-10T01:08:38;6.13;;;4.72;;
45762;SDS011;37512;52.408;13.356;2023-05-10T01:12:40;9.55;;;5.10;;
45762;SDS011;37512;52.408;13.356;2023-05-10T01:16:46;9.13;;;4.60;;
45762;SDS011;37512;52.408;13.356;2023-05-10T01:20:55;6.78;;;5.30;;
45762;SDS011;37512;52.408;13.356;2023-05-10T01:25:11;7.15;;;4.50;;
45762;SDS011;37512;52.408;13.356;2023-05-10T01:33:39;6.60;;;5.15;;
45762;SDS011;37512;52.408;13.356;2023-05-10T01:38:32;7.25;;;4.90;;
45762;SDS011;37512;52.408;13.356;2023-05-10T01:42:21;8.48;;;4.82;;
45762;SDS011;37512;52.408;13.356;2023-05-10T01:46:35;6.45;;;4.65;;
45762;SDS011;37512;52.408;13.356;2023-05-10T01:50:40;6.88;;;5.05;;
45762;SDS011;37512;52.408;13.356;2023-05-10T01:55:18;6.00;;;4.45;;
45762;SDS011;37512;52.408;13.356;2023-05-10T01:59:17;8.23;;;4.82;;
45762;SDS011;37512;52.408;13.356;2023-05-10T02:03:20;10.30;;;4.85;;
45762;SDS011;37512;52.408;13.356;2023-05-10T02:07:24;11.95;;;5.68;;
45762;SDS011;37512;52.408;13.356;2023-05-10T02:11:29;13.27;;;5.07;;
45762;SDS011;37512;52.408;13.356;2023-05-10T02:15:32;8.00;;;4.90;;
45762;SDS011;37512;52.408;13.356;2023-05-10T02:19:39;9.32;;;5.00;;
45762;SDS011;37512;52.408;13.356;2023-05-10T02:23:43;7.93;;;5.00;;
45762;SDS011;37512;52.408;13.356;2023-05-10T02:27:46;7.40;;;5.60;;
45762;SDS011;37512;52.408;13.356;2023-05-10T02:31:49;7.45;;;5.35;;
45762;SDS011;37512;52.408;13.356;2023-05-10T02:35:55;10.77;;;5.50;;
45762;SDS011;37512;52.408;13.356;2023-05-10T02:39:57;7.32;;;5.05;;
45762;SDS011;37512;52.408;13.356;2023-05-10T02:43:59;9.88;;;5.07;;
45762;SDS011;37512;52.408;13.356;2023-05-10T02:48:03;6.93;;;4.90;;
45762;SDS011;37512;52.408;13.356;2023-05-10T02:52:05;12.10;;;5.90;;
45762;SDS011;37512;52.408;13.356;2023-05-10T02:56:11;6.90;;;5.20;;
45762;SDS011;37512;52.408;13.356;2023-05-10T03:00:18;7.03;;;4.38;;
45762;SDS011;37512;52.408;13.356;2023-05-10T03:04:20;8.45;;;5.30;;
45762;SDS011;37512;52.408;13.356;2023-05-10T03:08:22;7.90;;;5.18;;
45762;SDS011;37512;52.408;13.356;2023-05-10T03:16:41;9.65;;;5.07;;
45762;SDS011;37512;52.408;13.356;2023-05-10T03:20:51;9.13;;;5.22;;
45762;SDS011;37512;52.408;13.356;2023-05-10T03:25:00;7.43;;;5.53;;
45762;SDS011;37512;52.408;13.356;2023-05-10T03:29:07;9.52;;;4.90;;
45762;SDS011;37512;52.408;13.356;2023-05-10T03:33:10;8.60;;;5.60;;
45762;SDS011;37512;52.408;13.356;2023-05-10T03:37:12;7.55;;;5.43;;
45762;SDS011;37512;52.408;13.356;2023-05-10T03:41:13;6.72;;;4.63;;
45762;SDS011;37512;52.408;13.356;2023-05-10T03:45:15;9.02;;;5.72;;
45762;SDS011;37512;52.408;13.356;2023-05-10T03:49:16;5.72;;;4.50;;
45762;SDS011;37512;52.408;13.356;2023-05-10T03:53:18;7.60;;;5.30;;
45762;SDS011;37512;52.408;13.356;2023-05-10T03:57:19;6.80;;;4.85;;
45762;SDS011;37512;52.408;13.356;2023-05-10T04:01:21;5.70;;;4.38;;
45762;SDS011;37512;52.408;13.356;2023-05-10T04:05:22;5.60;;;4.28;;
45762;SDS011;37512;52.408;13.356;2023-05-10T04:09:24;7.47;;;4.90;;
45762;SDS011;37512;52.408;13.356;2023-05-10T04:13:26;7.05;;;5.28;;
45762;SDS011;37512;52.408;13.356;2023-05-10T04:17:27;6.63;;;4.28;;
45762;SDS011;37512;52.408;13.356;2023-05-10T04:21:29;8.05;;;5.07;;
45762;SDS011;37512;52.408;13.356;2023-05-10T04:25:33;7.10;;;4.82;;
45762;SDS011;37512;52.408;13.356;2023-05-10T04:29:35;7.18;;;4.50;;
45762;SDS011;37512;52.408;13.356;2023-05-10T04:33:37;8.07;;;4.63;;
45762;SDS011;37512;52.408;13.356;2023-05-10T04:37:38;7.32;;;4.13;;
45762;SDS011;37512;52.408;13.356;2023-05-10T04:41:40;5.82;;;4.35;;
45762;SDS011;37512;52.408;13.356;2023-05-10T04:45:41;7.88;;;3.88;;
45762;SDS011;37512;52.408;13.356;2023-05-10T04:49:43;5.40;;;4.00;;
45762;SDS011;37512;52.408;13.356;2023-05-10T04:53:44;9.98;;;4.95;;
45762;SDS011;37512;52.408;13.356;2023-05-10T04:58:02;7.88;;;3.88;;
45762;SDS011;37512;52.408;13.356;2023-05-10T05:02:04;9.07;;;4.50;;
45762;SDS011;37512;52.408;13.356;2023-05-10T05:06:06;5.07;;;3.75;;
45762;SDS011;37512;52.408;13.356;2023-05-10T05:10:08;5.13;;;3.33;;
45762;SDS011;37512;52.408;13.356;2023-05-10T05:14:09;8.77;;;4.05;;
45762;SDS011;37512;52.408;13.356;2023-05-10T05:18:11;5.18;;;3.88;;
45762;SDS011;37512;52.408;13.356;2023-05-10T05:22:13;5.40;;;3.78;;
45762;SDS011;37512;52.408;13.356;2023-05-10T05:26:14;7.30;;;3.97;;
45762;SDS011;37512;52.408;13.356;2023-05-10T05:30:18;4.80;;;3.03;;
45762;SDS011;37512;52.408;13.356;2023-05-10T05:34:19;6.53;;;3.83;;
45762;SDS011;37512;52.408;13.356;2023-05-10T05:38:22;6.43;;;3.38;;
45762;SDS011;37512;52.408;13.356;2023-05-10T05:42:24;3.40;;;2.85;;
45762;SDS011;37512;52.408;13.356;2023-05-10T05:46:26;3.95;;;3.17;;
45762;SDS011;37512;52.408;13.356;2023-05-10T05:50:28;4.22;;;2.90;;
45762;SDS011;37512;52.408;13.356;2023-05-10T05:54:29;8.43;;;3.35;;
45762;SDS011;37512;52.408;13.356;2023-05-10T05:58:32;3.83;;;2.88;;
45762;SDS011;37512;52.408;13.356;2023-05-10T06:02:34;6.55;;;3.03;;
45762;SDS011;37512;52.408;13.356;2023-05-10T06:06:36;3.85;;;2.83;;
45762;SDS011;37512;52.408;13.356;2023-05-10T06:10:37;4.45;;;2.72;;
45762;SDS011;37512;52.408;13.356;2023-05-10T06:14:38;3.35;;;2.58;;
45762;SDS011;37512;52.408;13.356;2023-05-10T06:18:40;4.60;;;2.53;;
45762;SDS011;37512;52.408;13.356;2023-05-10T06:22:42;5.00;;;2.47;;
45762;SDS011;37512;52.408;13.356;2023-05-10T06:26:43;4.22;;;2.25;;
45762;SDS011;37512;52.408;13.356;2023-05-10T06:30:45;4.32;;;2.50;;
45762;SDS011;37512;52.408;13.356;2023-05-10T06:34:46;8.52;;;2.60;;
45762;SDS011;37512;52.408;13.356;2023-05-10T06:38:48;3.15;;;2.28;;
45762;SDS011;37512;52.408;13.356;2023-05-10T06:42:50;3.63;;;2.58;;
45762;SDS011;37512;52.408;13.356;2023-05-10T06:46:51;3.58;;;2.42;;
45762;SDS011;37512;52.408;13.356;2023-05-10T06:50:54;3.22;;;2.42;;
45762;SDS011;37512;52.408;13.356;2023-05-10T06:54:56;3.95;;;2.42;;
45762;SDS011;37512;52.408;13.356;2023-05-10T06:58:57;5.13;;;2.60;;
45762;SDS011;37512;52.408;13.356;2023-05-10T07:02:59;4.22;;;2.67;;
45762;SDS011;37512;52.408;13.356;2023-05-10T07:07:00;3.05;;;1.98;;
45762;SDS011;37512;52.408;13.356;2023-05-10T07:11:05;4.22;;;2.10;;
45762;SDS011;37512;52.408;13.356;2023-05-10T07:15:11;4.82;;;2.13;;
45762;SDS011;37512;52.408;13.356;2023-05-10T07:19:13;5.32;;;2.67;;
45762;SDS011;37512;52.408;13.356;2023-05-10T07:23:15;4.30;;;2.28;;
45762;SDS011;37512;52.408;13.356;2023-05-10T07:27:16;2.85;;;2.08;;
45762;SDS011;37512;52.408;13.356;2023-05-10T07:31:18;6.65;;;2.42;;
45762;SDS011;37512;52.408;13.356;2023-05-10T07:35:19;4.43;;;2.25;;
45762;SDS011;37512;52.408;13.356;2023-05-10T07:39:21;4.07;;;2.17;;
45762;SDS011;37512;52.408;13.356;2023-05-10T07:43:28;5.60;;;2.08;;
45762;SDS011;37512;52.408;13.356;2023-05-10T07:47:29;3.53;;;2.20;;
45762;SDS011;37512;52.408;13.356;2023-05-10T07:51:31;4.15;;;2.22;;
45762;SDS011;37512;52.408;13.356;2023-05-10T07:55:32;3.22;;;2.20;;
45762;SDS011;37512;52.408;13.356;2023-05-10T07:59:34;5.57;;;1.88;;
45762;SDS011;37512;52.408;13.356;2023-05-10T08:03:35;3.20;;;2.05;;
45762;SDS011;37512;52.408;13.356;2023-05-10T08:07:37;3.42;;;2.25;;
45762;SDS011;37512;52.408;13.356;2023-05-10T08:11:39;5.25;;;2.40;;
45762;SDS011;37512;52.408;13.356;2023-05-10T08:15:40;2.80;;;2.08;;
45762;SDS011;37512;52.408;13.356;2023-05-10T08:19:42;7.85;;;2.50;;
45762;SDS011;37512;52.408;13.356;2023-05-10T08:23:43;3.72;;;2.28;;
45762;SDS011;37512;52.408;13.356;2023-05-10T08:27:45;2.67;;;2.25;;
45762;SDS011;37512;52.408;13.356;2023-05-10T08:31:46;2.95;;;1.85;;
45762;SDS011;37512;52.408;13.356;2023-05-10T08:35:48;4.25;;;2.80;;
45762;SDS011;37512;52.408;13.356;2023-05-10T08:39:50;6.00;;;2.40;;
45762;SDS011;37512;52.408;13.356;2023-05-10T08:43:52;3.47;;;2.42;;
45762;SDS011;37512;52.408;13.356;2023-05-10T08:47:54;3.55;;;2.10;;
45762;SDS011;37512;52.408;13.356;2023-05-10T08:51:56;3.70;;;2.25;;
45762;SDS011;37512;52.408;13.356;2023-05-10T08:56:01;3.30;;;2.28;;
45762;SDS011;37512;52.408;13.356;2023-05-10T09:00:03;3.08;;;2.53;;
45762;SDS011;37512;52.408;13.356;2023-05-10T09:04:05;2.67;;;2.00;;
45762;SDS011;37512;52.408;13.356;2023-05-10T09:08:07;4.32;;;2.78;;
45762;SDS011;37512;52.408;13.356;2023-05-10T09:12:10;6.28;;;2.10;;
45762;SDS011;37512;52.408;13.356;2023-05-10T09:16:12;4.20;;;2.58;;
45762;SDS011;37512;52.408;13.356;2023-05-10T09:20:20;3.08;;;2.35;;
45762;SDS011;37512;52.408;13.356;2023-05-10T09:24:25;2.47;;;1.90;;
45762;SDS011;37512;52.408;13.356;2023-05-10T09:28:31;6.07;;;2.50;;
45762;SDS011;37512;52.408;13.356;2023-05-10T09:32:42;5.18;;;2.20;;
45762;SDS011;37512;52.408;13.356;2023-05-10T09:36:52;2.97;;;1.98;;
45762;SDS011;37512;52.408;13.356;2023-05-10T09:40:55;3.42;;;2.20;;
45762;SDS011;37512;52.408;13.356;2023-05-10T09:45:01;4.25;;;2.50;;
45762;SDS011;37512;52.408;13.356;2023-05-10T09:49:05;6.22;;;2.33;;
45762;SDS011;37512;52.408;13.356;2023-05-10T09:53:07;7.03;;;2.17;;
45762;SDS011;37512;52.408;13.356;2023-05-10T09:57:13;7.10;;;2.10;;
45762;SDS011;37512;52.408;13.356;2023-05-10T10:01:21;2.80;;;2.20;;
45762;SDS011;37512;52.408;13.356;2023-05-10T10:05:28;7.57;;;2.30;;
45762;SDS011;37512;52.408;13.356;2023-05-10T10:09:33;6.88;;;3.30;;
45762;SDS011;37512;52.408;13.356;2023-05-10T10:13:37;4.28;;;2.17;;
45762;SDS011;37512;52.408;13.356;2023-05-10T10:17:38;3.53;;;2.08;;
45762;SDS011;37512;52.408;13.356;2023-05-10T10:21:41;3.13;;;2.03;;
45762;SDS011;37512;52.408;13.356;2023-05-10T10:25:43;4.13;;;2.33;;
45762;SDS011;37512;52.408;13.356;2023-05-10T10:33:59;3.90;;;2.25;;
45762;SDS011;37512;52.408;13.356;2023-05-10T10:38:15;3.65;;;2.42;;
45762;SDS011;37512;52.408;13.356;2023-05-10T10:47:07;3.00;;;1.92;;
45762;SDS011;37512;52.408;13.356;2023-05-10T10:51:10;4.40;;;1.70;;
45762;SDS011;37512;52.408;13.356;2023-05-10T10:55:18;2.75;;;1.70;;
45762;SDS011;37512;52.408;13.356;2023-05-10T10:59:26;6.53;;;2.30;;
45762;SDS011;37512;52.408;13.356;2023-05-10T11:03:29;3.63;;;1.90;;
45762;SDS011;37512;52.408;13.356;2023-05-10T11:07:30;4.32;;;2.08;;
45762;SDS011;37512;52.408;13.356;2023-05-10T11:11:32;4.45;;;2.10;;
45762;SDS011;37512;52.408;13.356;2023-05-10T11:15:37;7.35;;;2.35;;
45762;SDS011;37512;52.408;13.356;2023-05-10T11:19:57;2.83;;;1.80;;
45762;SDS011;37512;52.408;13.356;2023-05-10T11:24:12;4.40;;;2.30;;
45762;SDS011;37512;52.408;13.356;2023-05-10T11:28:18;3.28;;;1.70;;
45762;SDS011;37512;52.408;13.356;2023-05-10T11:32:20;2.83;;;1.80;;
45762;SDS011;37512;52.408;13.356;2023-05-10T11:36:26;5.60;;;1.75;;
45762;SDS011;37512;52.408;13.356;2023-05-10T11:40:29;2.05;;;1.40;;
45762;SDS011;37512;52.408;13.356;2023-05-10T11:44:32;2.95;;;1.83;;
45762;SDS011;37512;52.408;13.356;2023-05-10T11:48:33;2.13;;;1.75;;
45762;SDS011;37512;52.408;13.356;2023-05-10T11:52:35;4.88;;;1.67;;
45762;SDS011;37512;52.408;13.356;2023-05-10T11:56:40;4.55;;;2.17;;
45762;SDS011;37512;52.408;13.356;2023-05-10T12:00:42;6.47;;;1.88;;
45762;SDS011;37512;52.408;13.356;2023-05-10T12:04:44;2.83;;;1.90;;
45762;SDS011;37512;52.408;13.356;2023-05-10T12:08:46;3.75;;;1.67;;
45762;SDS011;37512;52.408;13.356;2023-05-10T12:12:48;3.50;;;1.90;;
45762;SDS011;37512;52.408;13.356;2023-05-10T12:16:53;2.58;;;1.80;;
45762;SDS011;37512;52.408;13.356;2023-05-10T12:20:55;3.10;;;1.80;;
45762;SDS011;37512;52.408;13.356;2023-05-10T12:25:04;3.33;;;2.17;;
45762;SDS011;37512;52.408;13.356;2023-05-10T12:29:16;3.17;;;1.67;;
45762;SDS011;37512;52.408;13.356;2023-05-10T12:33:21;3.85;;;1.70;;
45762;SDS011;37512;52.408;13.356;2023-05-10T12:37:23;3.58;;;1.85;;
45762;SDS011;37512;52.408;13.356;2023-05-10T12:41:28;2.88;;;2.00;;
45762;SDS011;37512;52.408;13.356;2023-05-10T12:45:30;3.03;;;1.90;;
45762;SDS011;37512;52.408;13.356;2023-05-10T12:49:32;4.70;;;2.40;;
45762;SDS011;37512;52.408;13.356;2023-05-10T12:53:33;4.25;;;2.00;;
45762;SDS011;37512;52.408;13.356;2023-05-10T12:57:35;4.45;;;1.65;;
45762;SDS011;37512;52.408;13.356;2023-05-10T13:01:36;3.95;;;2.22;;
45762;SDS011;37512;52.408;13.356;2023-05-10T13:05:38;3.45;;;2.08;;
45762;SDS011;37512;52.408;13.356;2023-05-10T13:09:39;5.25;;;3.55;;
45762;SDS011;37512;52.408;13.356;2023-05-10T13:13:41;4.35;;;2.40;;
45762;SDS011;37512;52.408;13.356;2023-05-10T13:17:42;3.03;;;1.80;;
45762;SDS011;37512;52.408;13.356;2023-05-10T13:21:44;4.38;;;2.15;;
45762;SDS011;37512;52.408;13.356;2023-05-10T13:25:46;3.28;;;1.85;;
45762;SDS011;37512;52.408;13.356;2023-05-10T13:29:47;4.40;;;2.10;;
45762;SDS011;37512;52.408;13.356;2023-05-10T13:33:49;2.53;;;1.80;;
45762;SDS011;37512;52.408;13.356;2023-05-10T13:37:51;4.45;;;2.10;;
45762;SDS011;37512;52.408;13.356;2023-05-10T13:41:54;2.78;;;1.70;;
45762;SDS011;37512;52.408;13.356;2023-05-10T13:45:56;2.90;;;1.80;;
45762;SDS011;37512;52.408;13.356;2023-05-10T13:49:57;2.50;;;2.05;;
45762;SDS011;37512;52.408;13.356;2023-05-10T13:53:59;5.47;;;1.98;;
45762;SDS011;37512;52.408;13.356;2023-05-10T13:58:01;4.05;;;2.00;;
45762;SDS011;37512;52.408;13.356;2023-05-10T14:02:02;4.50;;;1.75;;
45762;SDS011;37512;52.408;13.356;2023-05-10T14:06:05;3.47;;;2.20;;
45762;SDS011;37512;52.408;13.356;2023-05-10T14:10:08;4.93;;;2.42;;
45762;SDS011;37512;52.408;13.356;2023-05-10T14:14:10;2.88;;;1.90;;
45762;SDS011;37512;52.408;13.356;2023-05-10T14:18:11;2.58;;;1.90;;
45762;SDS011;37512;52.408;13.356;2023-05-10T14:22:13;2.35;;;1.80;;
45762;SDS011;37512;52.408;13.356;2023-05-10T14:26:14;3.00;;;2.05;;
45762;SDS011;37512;52.408;13.356;2023-05-10T14:30:16;5.20;;;2.05;;
45762;SDS011;37512;52.408;13.356;2023-05-10T14:34:17;2.67;;;2.10;;
45762;SDS011;37512;52.408;13.356;2023-05-10T14:38:19;5.13;;;4.20;;
45762;SDS011;37512;52.408;13.356;2023-05-10T14:42:20;2.45;;;1.80;;
45762;SDS011;37512;52.408;13.356;2023-05-10T14:46:22;3.72;;;1.70;;
45762;SDS011;37512;52.408;13.356;2023-05-10T14:50:23;5.57;;;2.08;;
45762;SDS011;37512;52.408;13.356;2023-05-10T14:54:32;2.05;;;1.83;;
45762;SDS011;37512;52.408;13.356;2023-05-10T14:58:34;3.00;;;2.10;;
45762;SDS011;37512;52.408;13.356;2023-05-10T15:02:36;3.88;;;1.80;;
45762;SDS011;37512;52.408;13.356;2023-05-10T15:06:38;4.97;;;2.30;;
45762;SDS011;37512;52.408;13.356;2023-05-10T15:10:39;5.72;;;1.92;;
45762;SDS011;37512;52.408;13.356;2023-05-10T15:14:41;3.53;;;1.90;;
45762;SDS011;37512;52.408;13.356;2023-05-10T15:18:42;5.18;;;2.10;;
45762;SDS011;37512;52.408;13.356;2023-05-10T15:22:44;3.05;;;1.90;;
45762;SDS011;37512;52.408;13.356;2023-05-10T15:26:45;4.78;;;2.00;;
45762;SDS011;37512;52.408;13.356;2023-05-10T15:30:47;3.08;;;2.05;;
45762;SDS011;37512;52.408;13.356;2023-05-10T15:34:48;2.13;;;1.80;;
45762;SDS011;37512;52.408;13.356;2023-05-10T15:38:50;2.38;;;1.90;;
45762;SDS011;37512;52.408;13.356;2023-05-10T15:42:51;4.70;;;2.22;;
45762;SDS011;37512;52.408;13.356;2023-05-10T15:46:53;7.05;;;2.13;;
45762;SDS011;37512;52.408;13.356;2023-05-10T15:50:54;3.80;;;2.25;;
45762;SDS011;37512;52.408;13.356;2023-05-10T15:54:56;5.45;;;2.47;;
45762;SDS011;37512;52.408;13.356;2023-05-10T15:58:58;7.43;;;3.05;;
45762;SDS011;37512;52.408;13.356;2023-05-10T16:02:59;8.73;;;4.00;;
45762;SDS011;37512;52.408;13.356;2023-05-10T16:07:01;5.13;;;3.40;;
45762;SDS011;37512;52.408;13.356;2023-05-10T16:11:03;6.82;;;3.65;;
45762;SDS011;37512;52.408;13.356;2023-05-10T16:15:05;4.30;;;3.33;;
45762;SDS011;37512;52.408;13.356;2023-05-10T16:19:07;5.60;;;3.40;;
45762;SDS011;37512;52.408;13.356;2023-05-10T16:23:08;4.47;;;3.70;;
45762;SDS011;37512;52.408;13.356;2023-05-10T16:27:10;5.60;;;3.00;;
45762;SDS011;37512;52.408;13.356;2023-05-10T16:31:13;6.13;;;3.95;;
45762;SDS011;37512;52.408;13.356;2023-05-10T16:35:15;4.30;;;2.60;;
45762;SDS011;37512;52.408;13.356;2023-05-10T16:39:16;4.43;;;3.33;;
45762;SDS011;37512;52.408;13.356;2023-05-10T16:43:18;5.50;;;3.63;;
45762;SDS011;37512;52.408;13.356;2023-05-10T16:47:19;4.40;;;3.25;;
45762;SDS011;37512;52.408;13.356;2023-05-10T16:51:21;4.60;;;3.25;;
45762;SDS011;37512;52.408;13.356;2023-05-10T16:55:23;4.75;;;3.33;;
45762;SDS011;37512;52.408;13.356;2023-05-10T16:59:26;4.80;;;3.53;;
45762;SDS011;37512;52.408;13.356;2023-05-10T17:03:28;5.88;;;3.75;;
45762;SDS011;37512;52.408;13.356;2023-05-10T17:07:29;4.63;;;3.65;;
45762;SDS011;37512;52.408;13.356;2023-05-10T17:11:31;4.90;;;3.92;;
45762;SDS011;37512;52.408;13.356;2023-05-10T17:15:34;4.88;;;3.53;;
45762;SDS011;37512;52.408;13.356;2023-05-10T17:19:37;5.53;;;3.70;;
45762;SDS011;37512;52.408;13.356;2023-05-10T17:23:39;4.90;;;3.70;;
45762;SDS011;37512;52.408;13.356;2023-05-10T17:27:40;4.22;;;3.72;;
45762;SDS011;37512;52.408;13.356;2023-05-10T17:31:42;4.30;;;3.85;;
45762;SDS011;37512;52.408;13.356;2023-05-10T17:35:44;6.80;;;3.88;;
45762;SDS011;37512;52.408;13.356;2023-05-10T17:39:46;6.45;;;3.78;;
45762;SDS011;37512;52.408;13.356;2023-05-10T17:43:47;8.40;;;4.22;;
45762;SDS011;37512;52.408;13.356;2023-05-10T17:47:49;5.63;;;3.78;;
45762;SDS011;37512;52.408;13.356;2023-05-10T17:51:52;5.60;;;4.03;;
45762;SDS011;37512;52.408;13.356;2023-05-10T17:55:53;4.07;;;3.67;;
45762;SDS011;37512;52.408;13.356;2023-05-10T17:59:58;4.40;;;3.78;;
45762;SDS011;37512;52.408;13.356;2023-05-10T18:04:02;9.13;;;4.00;;
45762;SDS011;37512;52.408;13.356;2023-05-10T18:08:04;4.18;;;3.58;;
45762;SDS011;37512;52.408;13.356;2023-05-10T18:12:07;6.03;;;3.70;;
45762;SDS011;37512;52.408;13.356;2023-05-10T18:16:08;3.85;;;3.42;;
45762;SDS011;37512;52.408;13.356;2023-05-10T18:20:13;5.03;;;4.00;;
45762;SDS011;37512;52.408;13.356;2023-05-10T18:24:14;4.65;;;4.07;;
45762;SDS011;37512;52.408;13.356;2023-05-10T18:28:23;7.72;;;3.88;;
45762;SDS011;37512;52.408;13.356;2023-05-10T18:32:24;19.58;;;10.73;;
45762;SDS011;37512;52.408;13.356;2023-05-10T18:36:26;6.70;;;5.43;;
45762;SDS011;37512;52.408;13.356;2023-05-10T18:40:28;6.07;;;4.45;;
45762;SDS011;37512;52.408;13.356;2023-05-10T18:44:30;5.88;;;4.40;;
45762;SDS011;37512;52.408;13.356;2023-05-10T18:48:31;6.95;;;4.38;;
45762;SDS011;37512;52.408;13.356;2023-05-10T18:52:33;7.00;;;5.32;;
45762;SDS011;37512;52.408;13.356;2023-05-10T18:56:36;6.00;;;4.65;;
45762;SDS011;37512;52.408;13.356;2023-05-10T19:00:39;6.88;;;4.53;;
45762;SDS011;37512;52.408;13.356;2023-05-10T19:04:41;7.40;;;4.50;;
45762;SDS011;37512;52.408;13.356;2023-05-10T19:08:42;13.20;;;11.25;;
45762;SDS011;37512;52.408;13.356;2023-05-10T19:12:44;11.00;;;8.02;;
45762;SDS011;37512;52.408;13.356;2023-05-10T19:16:45;9.30;;;5.28;;
45762;SDS011;37512;52.408;13.356;2023-05-10T19:20:49;8.60;;;6.50;;
45762;SDS011;37512;52.408;13.356;2023-05-10T19:24:54;18.70;;;11.27;;
45762;SDS011;37512;52.408;13.356;2023-05-10T19:28:57;13.18;;;8.30;;
45762;SDS011;37512;52.408;13.356;2023-05-10T19:32:59;10.10;;;7.00;;
45762;SDS011;37512;52.408;13.356;2023-05-10T19:37:04;6.38;;;5.63;;
45762;SDS011;37512;52.408;13.356;2023-05-10T19:41:06;9.80;;;7.53;;
45762;SDS011;37512;52.408;13.356;2023-05-10T19:45:07;7.65;;;5.82;;
45762;SDS011;37512;52.408;13.356;2023-05-10T19:49:09;8.07;;;5.28;;
45762;SDS011;37512;52.408;13.356;2023-05-10T19:53:11;11.70;;;6.28;;
45762;SDS011;37512;52.408;13.356;2023-05-10T19:57:12;11.50;;;6.93;;
45762;SDS011;37512;52.408;13.356;2023-05-10T20:01:14;10.55;;;7.45;;
45762;SDS011;37512;52.408;13.356;2023-05-10T20:05:16;10.45;;;7.82;;
45762;SDS011;37512;52.408;13.356;2023-05-10T20:09:17;11.00;;;8.43;;
45762;SDS011;37512;52.408;13.356;2023-05-10T20:13:19;13.55;;;10.07;;
45762;SDS011;37512;52.408;13.356;2023-05-10T20:17:20;19.10;;;11.45;;
45762;SDS011;37512;52.408;13.356;2023-05-10T20:21:22;15.10;;;11.00;;
45762;SDS011;37512;52.408;13.356;2023-05-10T20:25:24;10.88;;;8.75;;
45762;SDS011;37512;52.408;13.356;2023-05-10T20:29:26;12.68;;;8.23;;
45762;SDS011;37512;52.408;13.356;2023-05-10T20:33:27;11.35;;;8.40;;
45762;SDS011;37512;52.408;13.356;2023-05-10T20:37:28;10.30;;;8.43;;
45762;SDS011;37512;52.408;13.356;2023-05-10T20:41:31;10.65;;;7.55;;
45762;SDS011;37512;52.408;13.356;2023-05-10T20:45:32;9.68;;;7.90;;
45762;SDS011;37512;52.408;13.356;2023-05-10T20:49:36;15.70;;;9.48;;
45762;SDS011;37512;52.408;13.356;2023-05-10T20:53:38;7.90;;;6.88;;
45762;SDS011;37512;52.408;13.356;2023-05-10T20:57:39;10.10;;;7.30;;
45762;SDS011;37512;52.408;13.356;2023-05-10T21:01:41;9.18;;;6.82;;
45762;SDS011;37512;52.408;13.356;2023-05-10T21:05:42;13.02;;;6.55;;
45762;SDS011;37512;52.408;13.356;2023-05-10T21:09:44;13.65;;;7.85;;
45762;SDS011;37512;52.408;13.356;2023-05-10T21:13:46;8.68;;;6.60;;
45762;SDS011;37512;52.408;13.356;2023-05-10T21:17:47;8.32;;;6.70;;
45762;SDS011;37512;52.408;13.356;2023-05-10T21:21:49;12.23;;;6.72;;
45762;SDS011;37512;52.408;13.356;2023-05-10T21:25:51;15.38;;;8.27;;
45762;SDS011;37512;52.408;13.356;2023-05-10T21:29:53;9.63;;;7.47;;
45762;SDS011;37512;52.408;13.356;2023-05-10T21:33:55;8.15;;;5.78;;
45762;SDS011;37512;52.408;13.356;2023-05-10T21:37:57;7.78;;;5.85;;
45762;SDS011;37512;52.408;13.356;2023-05-10T21:41:58;8.57;;;6.88;;
45762;SDS011;37512;52.408;13.356;2023-05-10T21:46:00;10.18;;;5.97;;
45762;SDS011;37512;52.408;13.356;2023-05-10T21:50:02;7.22;;;5.68;;
45762;SDS011;37512;52.408;13.356;2023-05-10T21:54:03;6.68;;;5.38;;
45762;SDS011;37512;52.408;13.356;2023-05-10T21:58:05;10.23;;;6.30;;
45762;SDS011;37512;52.408;13.356;2023-05-10T22:02:07;9.55;;;6.15;;
45762;SDS011;37512;52.408;13.356;2023-05-10T22:06:08;9.20;;;5.93;;
45762;SDS011;37512;52.408;13.356;2023-05-10T22:10:10;10.68;;;5.82;;
45762;SDS011;37512;52.408;13.356;2023-05-10T22:14:11;6.57;;;5.50;;
45762;SDS011;37512;52.408;13.356;2023-05-10T22:18:13;5.88;;;5.15;;
45762;SDS011;37512;52.408;13.356;2023-05-10T22:22:14;6.97;;;5.18;;
45762;SDS011;37512;52.408;13.356;2023-05-10T22:26:15;8.80;;;6.00;;
45762;SDS011;37512;52.408;13.356;2023-05-10T22:30:17;6.70;;;5.63;;
45762;SDS011;37512;52.408;13.356;2023-05-10T22:34:20;7.18;;;5.15;;
45762;SDS011;37512;52.408;13.356;2023-05-10T22:38:21;7.00;;;5.22;;
45762;SDS011;37512;52.408;13.356;2023-05-10T22:42:23;7.10;;;5.15;;
45762;SDS011;37512;52.408;13.356;2023-05-10T22:46:24;6.53;;;4.93;;
45762;SDS011;37512;52.408;13.356;2023-05-10T22:50:26;6.53;;;5.10;;
45762;SDS011;37512;52.408;13.356;2023-05-10T22:54:29;8.32;;;5.15;;
45762;SDS011;37512;52.408;13.356;2023-05-10T22:58:30;8.02;;;5.47;;
45762;SDS011;37512;52.408;13.356;2023-05-10T23:02:33;6.32;;;5.60;;
45762;SDS011;37512;52.408;13.356;2023-05-10T23:06:35;8.90;;;5.63;;
45762;SDS011;37512;52.408;13.356;2023-05-10T23:10:36;6.80;;;5.57;;
45762;SDS011;37512;52.408;13.356;2023-05-10T23:14:38;6.55;;;5.50;;
45762;SDS011;37512;52.408;13.356;2023-05-10T23:18:41;8.25;;;5.50;;
45762;SDS011;37512;52.408;13.356;2023-05-10T23:22:43;8.35;;;5.82;;
45762;SDS011;37512;52.408;13.356;2023-05-10T23:26:45;10.90;;;7.38;;
45762;SDS011;37512;52.408;13.356;2023-05-10T23:30:47;11.05;;;7.93;;
45762;SDS011;37512;52.408;13.356;2023-05-10T23:34:55;9.55;;;7.70;;
45762;SDS011;37512;52.408;13.356;2023-05-10T23:38:56;11.20;;;9.10;;
45762;SDS011;37512;52.408;13.356;2023-05-10T23:42:58;11.65;;;8.38;;
45762;SDS011;37512;52.408;13.356;2023-05-10T23:46:59;10.45;;;8.70;;
45762;SDS011;37512;52.408;13.356;2023-05-10T23:51:01;10.60;;;8.57;;
45762;SDS011;37512;52.408;13.356;2023-05-10T23:55:02;11.18;;;8.63;;
45762;SDS011;37512;52.408;13.356;2023-05-10T23:59:04;11.80;;;9.23;;
